Meadows Of Dan, Virginia
Current Conditions -  °F | °C
As of 8:15 PM on Friday 19 Dec 2014 (Local Time) from KMWK Reporting Station
Clear Clear  
Wind Chill: 43°   Ceiling: Unl
Heat Index: 43°   Visibility: 10mi
Dew Point: 26°   Wind: 3mph
Humidity: 50%   Direction: 10°N
Pressure: 30.17"   Gusts: NA
Location:  36.74°N, 80.39°W
Report Text: KMWK 200115Z AUTO 01003KT 10SM CLR 06/M03 A3017 RMK AO2 T00631035
Loading
Personal Weather Stations






























Interactive Weather Map New forecast layout! Learn more

10-Day Weather Forecast

Advertisements
Track Severe Weather on mobile